Time;durP1;ratioP1;P1;durP2;ratioP2;P2;SDS_P1;SDS_P2;PMS_P1;PMS_P2;Temp;Humidity;BMP_temperature;BMP_pressure;BME280_temperature;BME280_humidity;BME280_pressure;Samples;Min_cycle;Max_cycle;Signal;HPM_P1;HPM_P2
2022/05/25 00:01:09;;;;;;;;;;;;;;;6.39;91.64;99384.98;1659520;86;20082;-70
2022/05/25 00:03:35;;;;;;;;;;;;;;;6.38;91.66;99392.08;1659388;86;22119;-70
2022/05/25 00:06:04;;;;;;;;;;;;;;;6.35;91.78;99383.97;1659612;86;20497;-71
2022/05/25 00:08:32;;;;;;;;;;;;;;;6.33;92.34;99384.00;1636868;86;20090;-70
2022/05/25 00:10:59;;;;;;;;;;;;;;;6.31;92.10;99382.92;1659018;86;20473;-70
2022/05/25 00:13:26;;;;;;;;;;;;;;;6.28;91.95;99386.23;1659464;86;20090;-70
2022/05/25 00:15:53;;;;;;;;;;;;;;;6.21;91.83;99379.77;1659409;86;21171;-70
2022/05/25 00:18:19;;;;;;;;;;;;;;;6.17;91.82;99383.37;1659422;86;20130;-70
2022/05/25 00:20:46;;;;;;;;;;;;;;;6.13;92.03;99385.86;1659315;86;20102;-70
2022/05/25 00:23:13;;;;;;;;;;;;;;;6.09;92.26;99384.00;1659447;86;20126;-70
2022/05/25 00:25:40;;;;;;;;;;;;;;;6.09;92.68;99385.37;1659746;86;20138;-69
2022/05/25 00:28:09;;;;;;;;;;;;;;;6.07;92.73;99382.12;1659467;86;21770;-70
2022/05/25 00:30:35;;;;;;;;;;;;;;;6.02;92.57;99386.27;1659354;86;20421;-70
2022/05/25 00:33:02;;;;;;;;;;;;;;;5.99;92.68;99380.03;1659385;86;20496;-70
2022/05/25 00:35:30;;;;;;;;;;;;;;;5.96;92.83;99382.23;1658564;86;20102;-70
2022/05/25 00:37:56;;;;;;;;;;;;;;;5.94;92.92;99383.07;1659404;86;20118;-70
2022/05/25 00:40:26;;;;;;;;;;;;;;;5.95;93.28;99386.05;1659728;86;21274;-70
2022/05/25 00:42:53;;;;;;;;;;;;;;;5.95;93.00;99384.70;1636826;86;20094;-69
2022/05/25 00:45:19;;;;;;;;;;;;;;;5.93;92.74;99383.36;1659451;86;20090;-70
2022/05/25 00:47:49;;;;;;;;;;;;;;;5.90;92.57;99379.30;1659354;86;20126;-70
2022/05/25 00:50:17;;;;;;;;;;;;;;;5.89;92.38;99383.67;1659593;86;20114;-70
2022/05/25 00:52:46;;;;;;;;;;;;;;;5.86;92.20;99376.86;1658785;86;21298;-70
2022/05/25 00:55:16;;;;;;;;;;;;;;;5.81;92.56;99382.36;1659305;86;20106;-70
2022/05/25 00:57:46;;;;;;;;;;;;;;;5.81;92.88;99383.72;1659222;86;20119;-70
2022/05/25 01:00:15;;;;;;;;;;;;;;;5.78;92.51;99388.38;1659453;86;20094;-71
2022/05/25 01:02:51;;;;;;;;;;;;;;;5.75;92.46;99392.27;1659062;86;20141;-70
2022/05/25 01:05:32;;;;;;;;;;;;;;;5.69;92.50;99395.58;1658913;86;21142;-70
2022/05/25 01:08:26;;;;;;;;;;;;;;;5.64;92.73;99392.36;1658813;86;20105;-70
2022/05/25 01:11:11;;;;;;;;;;;;;;;5.62;92.84;99393.19;1659445;86;20149;-70
2022/05/25 01:13:53;;;;;;;;;;;;;;;5.59;93.14;99392.95;1625538;86;20494;-71
2022/05/25 01:16:23;;;;;;;;;;;;;;;5.56;93.34;99396.25;1646930;87;20114;-70
2022/05/25 01:19:00;;;;;;;;;;;;;;;5.53;93.48;99391.37;1663233;86;21364;-70
2022/05/25 01:21:40;;;;;;;;;;;;;;;5.51;93.70;99390.84;1657271;86;20118;-70
2022/05/25 01:24:30;;;;;;;;;;;;;;;5.50;93.75;99390.59;1659603;86;20430;-70
2022/05/25 01:27:13;;;;;;;;;;;;;;;5.47;93.69;99389.25;1659059;86;20442;-69
2022/05/25 01:29:49;;;;;;;;;;;;;;;5.43;93.72;99384.66;1659474;86;20153;-69
2022/05/25 01:32:24;;;;;;;;;;;;;;;5.40;94.11;99391.48;1658918;86;39528;-69
2022/05/25 01:34:56;;;;;;;;;;;;;;;5.39;94.44;99389.86;1659335;86;20126;-69
2022/05/25 01:37:53;;;;;;;;;;;;;;;5.37;94.48;99392.60;1659458;86;20122;-69
2022/05/25 01:40:29;;;;;;;;;;;;;;;5.36;94.47;99396.42;1659308;86;20090;-70
2022/05/25 01:43:07;;;;;;;;;;;;;;;5.31;94.48;99389.11;1659399;86;20094;-69
2022/05/25 01:45:34;;;;;;;;;;;;;;;5.28;94.50;99395.94;1659539;86;21193;-69
2022/05/25 01:48:04;;;;;;;;;;;;;;;5.26;94.62;99394.59;1659476;86;20461;-68
2022/05/25 01:50:37;;;;;;;;;;;;;;;5.23;94.83;99397.33;1659769;86;20157;-69
2022/05/25 01:53:04;;;;;;;;;;;;;;;5.22;94.70;99401.70;1659502;86;20118;-69
2022/05/25 01:55:33;;;;;;;;;;;;;;;5.19;94.54;99403.11;1659316;86;20102;-69
2022/05/25 01:58:02;;;;;;;;;;;;;;;5.15;94.43;99395.80;1659368;86;21809;-69
2022/05/25 02:00:37;;;;;;;;;;;;;;;5.13;94.58;99400.16;1659296;86;20106;-69
2022/05/25 02:05:55;;;;;;;;;;;;;;;5.12;94.80;99413.50;1659326;86;20081;-69
2022/05/25 02:08:46;;;;;;;;;;;;;;;5.10;94.70;99411.61;1659823;86;20457;-69
2022/05/25 02:11:22;;;;;;;;;;;;;;;5.09;94.51;99412.70;1659433;86;21291;-69
2022/05/25 02:13:52;;;;;;;;;;;;;;;5.08;94.37;99413.80;1659369;86;20142;-69
2022/05/25 02:16:28;;;;;;;;;;;;;;;5.05;94.35;99418.45;1658792;86;20094;-70
2022/05/25 02:19:28;;;;;;;;;;;;;;;5.03;94.50;99418.46;1659416;86;20473;-70
2022/05/25 02:21:56;;;;;;;;;;;;;;;5.02;94.74;99424.45;1654958;86;20102;-70
2022/05/25 02:24:35;;;;;;;;;;;;;;;5.04;95.06;99420.09;1649268;86;21131;-70
2022/05/25 02:27:06;;;;;;;;;;;;;;;5.05;95.22;99418.45;1649392;87;20137;-70
2022/05/25 02:29:39;;;;;;;;;;;;;;;5.07;95.32;99420.34;1639875;87;20106;-70
2022/05/25 02:32:21;;;;;;;;;;;;;;;5.09;95.40;99422.23;1649308;86;20102;-70
2022/05/25 02:34:51;;;;;;;;;;;;;;;5.10;95.42;99427.13;1649466;87;20430;-70
2022/05/25 02:37:19;;;;;;;;;;;;;;;5.15;95.79;99428.45;1649347;87;21924;-70
2022/05/25 02:39:46;;;;;;;;;;;;;;;5.17;95.92;99428.98;1649231;86;20102;-70
2022/05/25 02:42:14;;;;;;;;;;;;;;;5.18;95.99;99430.61;1649515;87;20504;-70
2022/05/25 02:44:41;;;;;;;;;;;;;;;5.22;96.20;99431.09;1649550;87;20481;-70
2022/05/25 02:47:08;;;;;;;;;;;;;;;5.25;96.29;99429.71;1650945;86;20429;-70
2022/05/25 02:49:36;;;;;;;;;;;;;;;5.29;96.38;99426.69;1649328;87;21163;-70
2022/05/25 02:52:03;;;;;;;;;;;;;;;5.34;96.55;99425.84;1649245;87;20146;-70
2022/05/25 02:54:30;;;;;;;;;;;;;;;5.38;96.75;99420.91;1649338;86;20090;-70
2022/05/25 02:56:56;;;;;;;;;;;;;;;5.46;97.10;99433.09;1649521;87;20119;-70
2022/05/25 02:59:23;;;;;;;;;;;;;;;5.52;97.33;99432.77;1649426;86;20134;-70
2022/05/25 03:01:49;;;;;;;;;;;;;;;5.60;97.49;99434.06;1649330;87;21264;-70
2022/05/25 03:04:15;;;;;;;;;;;;;;;5.70;97.46;99437.25;1649223;87;20103;-70
2022/05/25 03:06:42;;;;;;;;;;;;;;;5.77;97.55;99441.81;1649413;86;20118;-70
2022/05/25 03:09:08;;;;;;;;;;;;;;;5.87;97.65;99438.97;1649469;86;21794;-70
2022/05/25 03:11:34;;;;;;;;;;;;;;;5.95;97.83;99440.55;1649395;87;20090;-70
2022/05/25 03:14:00;;;;;;;;;;;;;;;6.07;97.95;99438.80;1649324;87;21221;-70
2022/05/25 03:16:27;;;;;;;;;;;;;;;6.19;98.11;99443.86;1649494;87;20127;-70
2022/05/25 03:18:53;;;;;;;;;;;;;;;6.30;98.02;99444.01;1649628;86;20433;-70
2022/05/25 03:21:20;;;;;;;;;;;;;;;6.43;98.01;99441.92;1649814;86;20762;-70
2022/05/25 03:23:47;;;;;;;;;;;;;;;6.55;98.08;99446.41;1661368;86;20157;-70
2022/05/25 03:26:13;;;;;;;;;;;;;;;6.69;98.03;99443.78;1663935;86;21901;-70
2022/05/25 03:28:39;;;;;;;;;;;;;;;6.81;97.96;99442.81;1663974;86;20445;-71
2022/05/25 03:31:06;;;;;;;;;;;;;;;6.95;97.87;99442.87;1670694;83;20098;-75
2022/05/25 03:33:33;;;;;;;;;;;;;;;7.11;97.30;99441.55;1656706;86;20084;-66
2022/05/25 03:35:59;;;;;;;;;;;;;;;7.29;96.86;99442.65;1673298;86;20104;-72
2022/05/25 03:38:27;;;;;;;;;;;;;;;7.47;96.34;99439.64;1674029;85;21118;-67
2022/05/25 03:40:53;;;;;;;;;;;;;;;7.63;95.72;99443.72;1673835;86;20096;-67
2022/05/25 03:43:23;;;;;;;;;;;;;;;7.81;94.82;99442.87;1673741;85;20132;-66
2022/05/25 03:45:53;;;;;;;;;;;;;;;8.00;95.00;99440.08;1671413;86;20200;-72
2022/05/25 03:48:23;;;;;;;;;;;;;;;8.18;94.29;99436.42;1630427;86;20114;-73
2022/05/25 03:50:50;;;;;;;;;;;;;;;8.41;93.44;99442.05;1662376;85;21318;-68
2022/05/25 03:53:17;;;;;;;;;;;;;;;8.65;91.57;99446.76;1662227;86;20442;-68
2022/05/25 03:55:48;;;;;;;;;;;;;;;8.89;89.91;99443.20;1662361;86;20116;-68
2022/05/25 03:58:20;;;;;;;;;;;;;;;9.15;88.95;99448.94;1662363;86;20155;-67
2022/05/25 04:00:45;;;;;;;;;;;;;;;9.44;85.52;99447.70;1661678;86;20103;-67
2022/05/25 04:03:17;;;;;;;;;;;;;;;9.72;83.89;99458.80;1637632;86;20540;-68
2022/05/25 04:05:53;;;;;;;;;;;;;;;10.00;81.11;99456.69;1662341;86;20095;-68
2022/05/25 04:08:26;;;;;;;;;;;;;;;10.28;79.01;99455.98;1661543;85;20423;-68
2022/05/25 04:10:53;;;;;;;;;;;;;;;10.52;77.34;99462.44;1662043;86;20729;-68
2022/05/25 04:13:22;;;;;;;;;;;;;;;10.75;74.62;99467.28;1673852;86;20124;-68
2022/05/25 04:15:59;;;;;;;;;;;;;;;11.02;70.73;99464.25;1673971;85;21149;-68
2022/05/25 04:18:26;;;;;;;;;;;;;;;11.25;66.83;99460.25;1673314;85;20423;-67
2022/05/25 04:20:58;;;;;;;;;;;;;;;11.45;65.33;99461.55;1673880;85;20084;-66
2022/05/25 04:23:28;;;;;;;;;;;;;;;11.65;64.38;99461.44;1675347;85;20100;-67
2022/05/25 04:25:56;;;;;;;;;;;;;;;11.82;63.78;99469.70;1676919;84;20129;-67
2022/05/25 04:28:27;;;;;;;;;;;;;;;11.98;62.30;99467.25;1654331;83;21239;-66
2022/05/25 04:30:55;;;;;;;;;;;;;;;12.16;61.47;99466.62;1623365;88;20130;-68
2022/05/25 04:33:22;;;;;;;;;;;;;;;12.32;59.95;99467.70;1650215;87;20126;-67
2022/05/25 04:35:51;;;;;;;;;;;;;;;12.48;58.92;99465.22;1650762;87;20420;-67
2022/05/25 04:38:18;;;;;;;;;;;;;;;12.65;59.92;99465.72;1625102;88;20090;-67
2022/05/25 04:40:46;;;;;;;;;;;;;;;12.81;58.34;99467.55;1669317;85;21290;-67
2022/05/25 04:43:21;;;;;;;;;;;;;;;12.97;57.42;99469.17;1604362;87;20095;-67
2022/05/25 04:45:59;;;;;;;;;;;;;;;13.15;56.95;99480.33;1602914;88;20130;-67
2022/05/25 04:48:27;;;;;;;;;;;;;;;13.31;55.89;99470.89;1646747;87;20479;-66
2022/05/25 04:50:53;;;;;;;;;;;;;;;13.47;56.49;99477.99;1625240;88;20098;-67
2022/05/25 04:53:21;;;;;;;;;;;;;;;13.64;56.02;99477.05;1629259;87;20548;-67
2022/05/25 04:58:42;;;;;;;;;;;;;;;13.93;53.58;99478.88;1627983;87;20429;-67
2022/05/25 05:01:10;;;;;;;;;;;;;;;14.08;53.87;99478.23;1650840;86;20440;-67
2022/05/25 05:03:45;;;;;;;;;;;;;;;14.20;51.87;99481.03;1631847;87;20144;-67
2022/05/25 05:06:09;;;;;;;;;;;;;;;14.33;51.50;99479.11;1652095;86;21253;-67
2022/05/25 05:08:40;;;;;;;;;;;;;;;14.45;52.42;99481.32;1651693;87;20080;-69
2022/05/25 05:11:09;;;;;;;;;;;;;;;14.55;52.07;99481.45;1653447;85;20439;-72
2022/05/25 05:13:47;;;;;;;;;;;;;;;14.66;51.73;99484.57;1677257;85;20100;-68
2022/05/25 05:16:16;;;;;;;;;;;;;;;14.76;50.95;99484.92;1652345;85;20139;-72
2022/05/25 05:18:43;;;;;;;;;;;;;;;14.87;50.93;99483.89;1676368;85;21129;-70
2022/05/25 05:21:36;;;;;;;;;;;;;;;14.96;48.38;99485.97;1660180;85;20374;-69
2022/05/25 05:24:00;;;;;;;;;;;;;;;15.07;49.88;99487.66;1677705;85;20151;-70
2022/05/25 05:26:46;;;;;;;;;;;;;;;15.16;50.23;99483.62;1657662;85;20118;-67
2022/05/25 05:29:00;;;;;;;;;;;;;;;15.29;49.33;99480.84;1669770;85;20432;-76
2022/05/25 05:31:34;;;;;;;;;;;;;;;15.42;49.35;99483.81;1685849;85;21908;-72
2022/05/25 05:34:00;;;;;;;;;;;;;;;15.58;49.15;99483.92;1666662;85;20090;-70
2022/05/25 05:36:28;;;;;;;;;;;;;;;15.72;47.99;99481.53;1680740;85;20130;-71
2022/05/25 05:39:01;;;;;;;;;;;;;;;15.88;48.54;99482.98;1658142;86;20422;-72
2022/05/25 05:41:43;;;;;;;;;;;;;;;16.01;48.17;99489.50;1658017;86;20421;-79
2022/05/25 05:44:10;;;;;;;;;;;;;;;16.16;47.79;99489.31;1658144;86;21111;-77
2022/05/25 05:46:38;;;;;;;;;;;;;;;16.33;46.56;99486.77;1658160;86;20106;-75
2022/05/25 05:49:05;;;;;;;;;;;;;;;16.49;45.52;99487.59;1658190;86;20150;-71
2022/05/25 05:51:32;;;;;;;;;;;;;;;16.63;44.98;99485.77;1680558;85;20156;-67
2022/05/25 05:53:59;;;;;;;;;;;;;;;16.77;44.27;99484.74;1658185;86;20544;-68
2022/05/25 05:56:27;;;;;;;;;;;;;;;16.92;44.97;99490.86;1634932;86;21259;-73
2022/05/25 05:58:53;;;;;;;;;;;;;;;17.05;44.73;99488.20;1657627;86;20082;-76
2022/05/25 06:01:21;;;;;;;;;;;;;;;17.20;44.67;99488.55;1658091;86;20094;-71
2022/05/25 06:03:48;;;;;;;;;;;;;;;17.32;42.52;99484.27;1658091;86;20667;-69
2022/05/25 06:06:15;;;;;;;;;;;;;;;17.38;42.85;99480.02;1658003;86;20110;-69
2022/05/25 06:08:46;;;;;;;;;;;;;;;17.47;42.27;99470.31;1657810;86;21262;-70
2022/05/25 06:11:09;;;;;;;;;;;;;;;17.56;41.99;99475.66;1658305;85;20171;-68
2022/05/25 06:13:37;;;;;;;;;;;;;;;17.66;42.15;99481.25;1662121;85;20088;-69
2022/05/25 06:21:28;;;;;;;;;;;;;;;18.09;39.33;99484.28;1658350;86;21106;-66
2022/05/25 06:23:56;;;;;;;;;;;;;;;18.22;39.71;99487.12;1657973;86;20123;-66
2022/05/25 06:26:27;;;;;;;;;;;;;;;18.35;39.81;99489.95;1659724;86;20138;-66
2022/05/25 06:28:51;;;;;;;;;;;;;;;18.45;37.54;99490.73;1635335;86;20513;-66
2022/05/25 06:31:17;;;;;;;;;;;;;;;18.55;37.80;99491.27;1659427;86;20098;-67
2022/05/25 06:33:43;;;;;;;;;;;;;;;18.65;37.92;99490.68;1659279;86;21239;-67
2022/05/25 06:36:24;;;;;;;;;;;;;;;18.79;36.19;99486.75;1659247;86;20118;-67
2022/05/25 06:38:50;;;;;;;;;;;;;;;18.91;35.87;99492.13;1658805;86;20094;-67
2022/05/25 06:41:17;;;;;;;;;;;;;;;19.02;36.44;99488.92;1659293;86;20113;-66
2022/05/25 06:43:43;;;;;;;;;;;;;;;19.12;35.96;99492.44;1659338;86;20110;-67
2022/05/25 06:46:11;;;;;;;;;;;;;;;19.23;34.40;99495.97;1659331;86;21191;-67
2022/05/25 06:48:38;;;;;;;;;;;;;;;19.32;32.43;99488.16;1659573;86;20123;-67
2022/05/25 06:51:13;;;;;;;;;;;;;;;19.42;31.57;99490.29;1658817;86;20425;-67
2022/05/25 06:53:41;;;;;;;;;;;;;;;19.54;31.73;99483.72;1658768;86;20126;-67
2022/05/25 06:56:09;;;;;;;;;;;;;;;19.65;31.54;99488.81;1659556;86;20466;-67
2022/05/25 06:58:37;;;;;;;;;;;;;;;19.72;30.96;99489.71;1659287;86;20106;-67
2022/05/25 07:01:04;;;;;;;;;;;;;;;19.76;31.86;99483.60;1659306;86;20094;-67
2022/05/25 07:03:31;;;;;;;;;;;;;;;19.89;31.85;99488.92;1659282;86;20098;-67
2022/05/25 07:05:57;;;;;;;;;;;;;;;20.00;30.63;99481.50;1659232;86;20101;-66
2022/05/25 07:08:25;;;;;;;;;;;;;;;20.12;29.71;99484.03;1659313;86;20130;-67
2022/05/25 07:10:53;;;;;;;;;;;;;;;20.25;29.91;99483.14;1659310;86;21156;-67
2022/05/25 07:13:19;;;;;;;;;;;;;;;20.28;27.93;99489.34;1674686;85;20076;-71
2022/05/25 07:15:46;;;;;;;;;;;;;;;20.31;27.94;99500.54;1686979;85;20124;-72
2022/05/25 07:18:13;;;;;;;;;;;;;;;20.39;27.75;99495.88;1687022;85;20139;-71
2022/05/25 07:20:40;;;;;;;;;;;;;;;20.49;28.65;99498.56;1687071;85;20099;-67
2022/05/25 07:23:06;;;;;;;;;;;;;;;20.62;29.02;99500.69;1686964;84;21102;-69
2022/05/25 07:25:32;;;;;;;;;;;;;;;20.75;27.36;99496.43;1686718;85;20474;-70
2022/05/25 07:27:59;;;;;;;;;;;;;;;20.85;29.04;99500.47;1684663;85;20234;-69
2022/05/25 07:30:28;;;;;;;;;;;;;;;20.97;29.36;99491.00;1686910;85;20759;-70
2022/05/25 07:32:55;;;;;;;;;;;;;;;21.03;28.72;99485.27;1682120;85;20118;-75
2022/05/25 07:35:21;;;;;;;;;;;;;;;21.02;28.95;99484.47;1636456;86;21675;-73
2022/05/25 07:37:50;;;;;;;;;;;;;;;21.01;28.27;99488.45;1659278;86;20122;-75
2022/05/25 07:40:21;;;;;;;;;;;;;;;21.00;27.47;99487.44;1659285;86;20114;-69
2022/05/25 07:42:50;;;;;;;;;;;;;;;20.94;27.18;99488.39;1636935;86;20126;-70
2022/05/25 07:45:16;;;;;;;;;;;;;;;20.91;26.47;99488.36;1658697;86;20089;-68
2022/05/25 07:47:43;;;;;;;;;;;;;;;20.91;27.34;99491.95;1659233;86;21154;-66
2022/05/25 07:50:10;;;;;;;;;;;;;;;20.99;26.82;99492.22;1659223;86;20123;-67
2022/05/25 07:52:40;;;;;;;;;;;;;;;21.10;27.08;99495.09;1659488;86;20126;-68
2022/05/25 07:55:09;;;;;;;;;;;;;;;21.27;26.50;99495.84;1659604;86;20106;-67
2022/05/25 07:57:35;;;;;;;;;;;;;;;21.42;27.35;99494.72;1658882;86;20126;-71
2022/05/25 08:00:03;;;;;;;;;;;;;;;21.59;28.57;99486.83;1659367;86;21263;-69
2022/05/25 08:08:07;;;;;;;;;;;;;;;22.14;25.80;99480.48;1659463;86;20413;-69
2022/05/25 08:10:34;;;;;;;;;;;;;;;22.30;25.25;99478.14;1658776;85;20474;-66
2022/05/25 08:13:01;;;;;;;;;;;;;;;22.53;25.63;99481.95;1659401;86;21158;-70
2022/05/25 08:15:28;;;;;;;;;;;;;;;22.82;25.43;99481.41;1659361;86;20082;-70
2022/05/25 08:17:55;;;;;;;;;;;;;;;23.15;24.84;99484.97;1659395;86;20082;-69
2022/05/25 08:20:22;;;;;;;;;;;;;;;23.39;24.01;99484.93;1660197;86;20121;-67
2022/05/25 08:22:49;;;;;;;;;;;;;;;23.59;23.25;99485.31;1659480;86;20106;-69
2022/05/25 08:25:17;;;;;;;;;;;;;;;23.71;22.73;99493.26;1659354;86;21761;-68
2022/05/25 08:27:44;;;;;;;;;;;;;;;23.69;22.24;99485.86;1636627;86;20146;-69
2022/05/25 08:30:16;;;;;;;;;;;;;;;23.71;22.75;99487.65;1659303;86;20149;-68
2022/05/25 08:32:44;;;;;;;;;;;;;;;23.89;22.98;99476.98;1658878;86;20102;-68
2022/05/25 08:35:10;;;;;;;;;;;;;;;24.07;22.55;99479.70;1659383;86;20126;-71
2022/05/25 08:37:38;;;;;;;;;;;;;;;24.17;21.68;99483.05;1659460;86;21153;-66
2022/05/25 08:40:05;;;;;;;;;;;;;;;24.10;22.76;99476.88;1659605;86;20118;-67
2022/05/25 08:42:46;;;;;;;;;;;;;;;23.99;24.08;99477.53;1659736;86;20164;-67
2022/05/25 08:45:13;;;;;;;;;;;;;;;23.87;22.19;99475.19;1659433;86;20137;-71
2022/05/25 08:47:47;;;;;;;;;;;;;;;23.81;22.65;99481.02;1658876;86;20114;-69
2022/05/25 08:50:13;;;;;;;;;;;;;;;23.95;22.06;99476.75;1659405;86;21786;-66
2022/05/25 08:52:39;;;;;;;;;;;;;;;24.09;22.51;99478.09;1659295;86;20078;-67
2022/05/25 08:55:08;;;;;;;;;;;;;;;24.13;22.44;99471.06;1659324;86;20105;-69
2022/05/25 08:57:39;;;;;;;;;;;;;;;23.95;23.40;99473.34;1635579;86;20144;-78
2022/05/25 09:00:08;;;;;;;;;;;;;;;23.75;23.87;99473.63;1658817;86;20090;-72
2022/05/25 09:02:48;;;;;;;;;;;;;;;23.62;23.78;99476.09;1658265;86;21177;-74
2022/05/25 09:05:20;;;;;;;;;;;;;;;23.51;22.86;99474.50;1659302;86;20118;-75
2022/05/25 09:07:53;;;;;;;;;;;;;;;23.30;23.48;99478.95;1659299;86;20126;-73
2022/05/25 09:10:19;;;;;;;;;;;;;;;23.18;23.73;99479.96;1659132;86;20205;-72
2022/05/25 09:12:49;;;;;;;;;;;;;;;23.26;23.20;99472.55;1659465;86;20177;-69
2022/05/25 09:15:27;;;;;;;;;;;;;;;23.52;23.39;99475.50;1663078;83;21174;-67
2022/05/25 09:18:00;;;;;;;;;;;;;;;23.90;23.01;99461.16;1649590;86;20117;-68
2022/05/25 09:20:36;;;;;;;;;;;;;;;24.42;23.01;99459.07;1656018;86;20105;-68
2022/05/25 09:23:03;;;;;;;;;;;;;;;24.83;21.39;99457.77;1638250;85;20157;-67
2022/05/25 09:25:30;;;;;;;;;;;;;;;24.98;21.60;99460.03;1676702;85;20088;-67
2022/05/25 09:28:07;;;;;;;;;;;;;;;25.08;21.14;99468.17;1678192;85;21103;-67
2022/05/25 09:30:36;;;;;;;;;;;;;;;25.15;21.27;99457.48;1676828;85;20436;-68
2022/05/25 09:33:23;;;;;;;;;;;;;;;25.37;22.33;99457.45;1676709;85;20195;-70
2022/05/25 09:35:55;;;;;;;;;;;;;;;25.60;21.65;99461.78;1676856;85;20113;-67
2022/05/25 09:38:48;;;;;;;;;;;;;;;25.65;21.00;99458.55;1676851;85;20459;-69
2022/05/25 09:41:18;;;;;;;;;;;;;;;25.60;21.66;99456.77;1676653;85;21159;-66
2022/05/25 09:43:44;;;;;;;;;;;;;;;25.61;21.18;99454.95;1675815;85;20096;-68
2022/05/25 09:46:23;;;;;;;;;;;;;;;25.61;21.80;99448.53;1676867;85;20420;-67
2022/05/25 09:48:54;;;;;;;;;;;;;;;25.79;23.39;99450.55;1676826;85;20108;-67
2022/05/25 09:51:33;;;;;;;;;;;;;;;26.23;20.72;99439.69;1670230;85;20128;-68
2022/05/25 09:54:15;;;;;;;;;;;;;;;26.41;20.37;99441.47;1676701;85;21164;-66
2022/05/25 09:56:45;;;;;;;;;;;;;;;26.55;23.14;99437.03;1654333;85;20148;-68
2022/05/25 09:59:14;;;;;;;;;;;;;;;26.69;22.20;99432.55;1678377;85;20109;-70
2022/05/25 10:01:45;;;;;;;;;;;;;;;26.81;21.05;99437.58;1676616;85;20096;-70
2022/05/25 10:04:14;;;;;;;;;;;;;;;26.72;21.47;99430.30;1676781;85;20088;-70
2022/05/25 10:06:51;;;;;;;;;;;;;;;26.53;19.99;99429.02;1676723;85;21771;-72
2022/05/25 10:09:26;;;;;;;;;;;;;;;26.36;19.72;99429.29;1676605;85;20165;-76
2022/05/25 10:11:57;;;;;;;;;;;;;;;26.08;19.45;99429.86;1676705;85;20471;-71
2022/05/25 10:14:35;;;;;;;;;;;;;;;25.74;19.52;99432.74;1676593;85;20132;-72
2022/05/25 10:17:09;;;;;;;;;;;;;;;25.76;20.40;99425.30;1676686;85;20112;-74
2022/05/25 10:19:40;;;;;;;;;;;;;;;25.82;20.84;99420.19;1678207;85;21855;-74
2022/05/25 10:22:06;;;;;;;;;;;;;;;25.74;21.12;99423.52;1647556;85;20466;-74
2022/05/25 10:24:40;;;;;;;;;;;;;;;25.84;20.79;99429.61;1629611;86;20152;-75
2022/05/25 10:27:20;;;;;;;;;;;;;;;25.91;21.57;99423.89;1691375;85;20357;-75
2022/05/25 10:38:26;;;;;;;;;;;;;;;25.88;20.13;99415.69;1692054;84;20115;-81
2022/05/25 10:40:52;;;;;;;;;;;;;;;25.72;20.56;99407.06;1692379;84;21429;-81
2022/05/25 10:43:24;;;;;;;;;;;;;;;25.48;19.65;99415.95;1668606;85;20110;-81
2022/05/25 10:45:53;;;;;;;;;;;;;;;25.25;20.24;99411.63;1692026;85;21751;-81
2022/05/25 10:48:38;;;;;;;;;;;;;;;25.15;21.03;99402.70;1691926;84;20147;-80
2022/05/25 10:51:13;;;;;;;;;;;;;;;25.27;21.38;99412.01;1684948;84;20206;-80
2022/05/25 10:56:45;;;;;;;;;;;;;;;25.72;20.72;99400.03;1662717;86;20129;-82
2022/05/25 10:59:32;;;;;;;;;;;;;;;26.00;20.77;99391.80;1662657;86;21068;-81
2022/05/25 11:02:15;;;;;;;;;;;;;;;25.92;19.16;99394.55;1662969;86;20150;-79
2022/05/25 11:04:55;;;;;;;;;;;;;;;25.61;19.44;99397.33;1661433;86;20172;-77
2022/05/25 11:07:34;;;;;;;;;;;;;;;25.47;20.14;99401.72;1662601;86;20473;-75
2022/05/25 11:10:08;;;;;;;;;;;;;;;25.53;20.09;99393.63;1663019;86;20117;-74
2022/05/25 11:12:38;;;;;;;;;;;;;;;25.75;20.32;99400.59;1662585;86;21104;-74
2022/05/25 11:15:13;;;;;;;;;;;;;;;25.97;19.90;99390.66;1672523;85;20488;-77
2022/05/25 11:17:46;;;;;;;;;;;;;;;26.15;19.78;99383.95;1691114;84;20170;-75
2022/05/25 11:20:41;;;;;;;;;;;;;;;26.23;19.69;99382.01;1690765;85;20123;-73
2022/05/25 11:23:28;;;;;;;;;;;;;;;26.26;20.54;99385.98;1691779;84;20147;-69
2022/05/25 11:26:01;;;;;;;;;;;;;;;26.24;19.67;99383.60;1696985;84;21223;-80
2022/05/25 11:28:41;;;;;;;;;;;;;;;26.12;20.06;99380.58;1697883;84;20130;-79
2022/05/25 11:31:14;;;;;;;;;;;;;;;25.98;20.32;99381.61;1698032;84;20126;-73
2022/05/25 11:34:12;;;;;;;;;;;;;;;25.99;20.43;99382.59;1697803;84;20473;-74
2022/05/25 11:36:45;;;;;;;;;;;;;;;26.13;19.46;99373.12;1696939;83;20126;-75
2022/05/25 11:39:28;;;;;;;;;;;;;;;26.25;20.48;99368.92;1697990;84;21403;-76
2022/05/25 11:42:08;;;;;;;;;;;;;;;26.27;19.85;99371.50;1696004;83;20150;-72
2022/05/25 11:44:53;;;;;;;;;;;;;;;26.08;19.30;99358.13;1695832;83;20423;-75
2022/05/25 11:47:26;;;;;;;;;;;;;;;25.87;20.38;99366.30;1656937;86;20127;-67
2022/05/25 11:50:15;;;;;;;;;;;;;;;25.67;19.84;99366.77;1654116;84;20376;-73
2022/05/25 11:53:06;;;;;;;;;;;;;;;25.60;19.66;99371.84;1682467;85;21120;-72
2022/05/25 11:55:52;;;;;;;;;;;;;;;25.67;19.78;99359.74;1666761;86;20122;-69
2022/05/25 11:58:40;;;;;;;;;;;;;;;25.74;19.11;99351.21;1684859;85;20148;-67
2022/05/25 12:01:31;;;;;;;;;;;;;;;25.82;19.64;99352.70;1684582;85;20088;-68
2022/05/25 12:04:27;;;;;;;;;;;;;;;25.84;19.00;99345.25;1687922;84;20136;-81
2022/05/25 12:07:33;;;;;;;;;;;;;;;25.88;19.15;99340.38;1684456;84;21174;-69
2022/05/25 12:10:31;;;;;;;;;;;;;;;26.16;20.08;99338.52;1684495;85;20095;-69
2022/05/25 12:13:09;;;;;;;;;;;;;;;26.75;19.78;99344.17;1684588;84;20123;-67
2022/05/25 12:15:58;;;;;;;;;;;;;;;27.20;18.60;99341.70;1684834;85;20376;-67
2022/05/25 12:18:37;;;;;;;;;;;;;;;27.40;18.56;99341.09;1684497;84;20104;-68
2022/05/25 12:21:13;;;;;;;;;;;;;;;27.71;19.24;99327.57;1684523;84;21464;-68
2022/05/25 12:23:42;;;;;;;;;;;;;;;27.98;18.54;99331.56;1684580;85;20096;-67
2022/05/25 12:26:14;;;;;;;;;;;;;;;28.16;18.39;99333.34;1668282;84;20099;-68
2022/05/25 12:28:42;;;;;;;;;;;;;;;28.12;18.63;99326.20;1672223;84;20778;-67
2022/05/25 12:31:11;;;;;;;;;;;;;;;27.86;18.03;99322.37;1684759;85;20095;-68
2022/05/25 12:33:38;;;;;;;;;;;;;;;27.27;18.47;99323.25;1687468;84;21169;-69
2022/05/25 12:36:07;;;;;;;;;;;;;;;26.71;19.40;99324.52;1668358;85;20458;-72
2022/05/25 12:38:36;;;;;;;;;;;;;;;26.36;18.94;99331.59;1682958;84;20120;-71
2022/05/25 12:41:08;;;;;;;;;;;;;;;26.16;19.53;99328.67;1660985;85;20080;-72
2022/05/25 12:43:41;;;;;;;;;;;;;;;26.13;18.60;99325.91;1631420;86;20178;-68
2022/05/25 12:48:59;;;;;;;;;;;;;;;26.06;18.86;99319.78;1674912;84;20494;-71
2022/05/25 12:51:41;;;;;;;;;;;;;;;26.02;18.52;99321.06;1676374;84;20183;-73
2022/05/25 12:54:30;;;;;;;;;;;;;;;25.90;18.36;99319.66;1684399;84;20427;-70
2022/05/25 12:56:59;;;;;;;;;;;;;;;25.69;19.76;99316.55;1673830;84;20133;-74
2022/05/25 12:59:35;;;;;;;;;;;;;;;25.51;19.25;99313.95;1633761;88;22244;-70
2022/05/25 13:02:21;;;;;;;;;;;;;;;25.42;19.17;99314.30;1659423;86;20119;-71
2022/05/25 13:04:50;;;;;;;;;;;;;;;25.43;19.78;99303.22;1633880;87;20171;-69
2022/05/25 13:07:29;;;;;;;;;;;;;;;25.54;19.82;99303.27;1656726;86;20078;-72
2022/05/25 13:09:55;;;;;;;;;;;;;;;25.61;19.50;99296.75;1633935;88;20102;-71
2022/05/25 13:12:44;;;;;;;;;;;;;;;25.52;19.41;99293.05;1656882;86;21225;-68
2022/05/25 13:15:19;;;;;;;;;;;;;;;25.43;20.91;99281.54;1613893;88;20122;-71
2022/05/25 13:17:54;;;;;;;;;;;;;;;25.45;21.33;99286.73;1659915;86;20449;-72
2022/05/25 13:20:46;;;;;;;;;;;;;;;25.36;19.80;99287.89;1635363;87;20102;-71
2022/05/25 13:23:04;;;;;;;;;;;;;;;25.21;20.06;99283.86;1659859;86;20115;-73
2022/05/25 13:26:03;;;;;;;;;;;;;;;25.15;20.83;99284.74;1664293;86;21047;-73
2022/05/25 13:28:51;;;;;;;;;;;;;;;25.12;20.49;99285.58;1650725;86;20441;-73
2022/05/25 13:31:30;;;;;;;;;;;;;;;24.97;20.98;99286.36;1638163;87;20168;-73
2022/05/25 13:33:58;;;;;;;;;;;;;;;24.89;22.10;99287.02;1649364;87;20186;-68
2022/05/25 13:36:25;;;;;;;;;;;;;;;24.83;21.33;99278.09;1638113;87;20093;-69
2022/05/25 13:38:59;;;;;;;;;;;;;;;24.83;22.26;99275.29;1665302;85;21214;-70
2022/05/25 13:41:42;;;;;;;;;;;;;;;24.82;22.54;99274.49;1647781;87;20115;-67
2022/05/25 13:44:13;;;;;;;;;;;;;;;24.75;21.60;99275.97;1649433;87;20086;-69
2022/05/25 13:46:49;;;;;;;;;;;;;;;24.61;22.01;99278.92;1650857;86;20434;-68